Time;durP1;ratioP1;P1;durP2;ratioP2;P2;SDS_P1;SDS_P2;PMS_P1;PMS_P2;Temp;Humidity;BMP_temperature;BMP_pressure;BME280_temperature;BME280_humidity;BME280_pressure;Samples;Min_cycle;Max_cycle;Signal;HPM_P1;HPM_P2
2021/06/09 05:30:28;;;;;;;20.92;15.57;;;;;;;17.11;86.37;100290.16;5022698;28;20101;-73
2021/06/09 05:32:56;;;;;;;18.02;14.27;;;;;;;17.49;85.03;100340.84;5037723;28;20041;-70
2021/06/09 05:35:23;;;;;;;19.40;15.02;;;;;;;17.55;85.03;100340.88;5036028;28;20503;-71
2021/06/09 05:37:49;;;;;;;20.40;14.77;;;;;;;17.41;85.30;100326.88;5019418;28;20033;-72
2021/06/09 05:40:16;;;;;;;19.08;15.20;;;;;;;17.51;85.08;100310.41;5037510;28;20041;-71
2021/06/09 05:42:43;;;;;;;17.00;14.10;;;;;;;17.79;85.66;100344.50;5023237;28;20032;-72
2021/06/09 05:45:09;;;;;;;24.50;15.38;;;;;;;17.81;84.09;100323.59;5037362;28;20043;-70
2021/06/09 05:47:43;;;;;;;19.25;14.73;;;;;;;17.73;85.17;100337.53;5036963;28;20103;-70
2021/06/09 05:50:16;;;;;;;22.23;14.52;;;;;;;17.75;85.03;100330.53;5019284;28;20511;-71
2021/06/09 05:52:41;;;;;;;20.90;15.05;;;;;;;17.87;85.30;100334.97;5036665;28;20033;-70
2021/06/09 05:55:16;;;;;;;16.45;14.40;;;;;;;18.02;84.94;100334.19;5037061;28;20036;-72
2021/06/09 05:57:44;;;;;;;21.23;14.85;;;;;;;18.18;83.65;100344.69;5036824;28;20469;-71
2021/06/09 06:00:10;;;;;;;19.55;13.20;;;;;;;18.16;83.04;100347.31;5037157;28;20033;-71
2021/06/09 06:02:38;;;;;;;16.77;14.98;;;;;;;18.15;84.66;100340.34;5036850;28;20057;-71
2021/06/09 06:05:08;;;;;;;17.92;15.00;;;;;;;18.30;83.99;100343.88;5036743;28;20025;-73
2021/06/09 06:07:34;;;;;;;18.50;14.07;;;;;;;18.41;83.10;100344.78;5037018;28;20112;-72
2021/06/09 06:10:01;;;;;;;19.17;13.45;;;;;;;18.13;82.42;100263.72;5036871;28;20040;-72
2021/06/09 06:12:27;;;;;;;15.73;13.45;;;;;;;18.75;81.64;100344.84;5036866;28;20481;-71
2021/06/09 06:14:54;;;;;;;16.40;14.00;;;;;;;18.79;81.53;100333.53;5037021;28;20049;-70
2021/06/09 06:17:20;;;;;;;21.63;12.88;;;;;;;18.78;82.13;100329.16;5036740;28;20548;-70
2021/06/09 06:19:49;;;;;;;18.27;13.20;;;;;;;18.87;81.60;100331.78;5036832;28;20172;-72
2021/06/09 06:22:24;;;;;;;14.25;10.93;;;;;;;18.41;79.28;100292.50;5037262;28;20527;-71
2021/06/09 06:24:51;;;;;;;14.82;11.05;;;;;;;18.76;79.93;100329.16;5037068;28;20393;-75
2021/06/09 06:27:19;;;;;;;14.43;10.63;;;;;;;18.79;79.63;100312.63;5036090;28;20032;-72
2021/06/09 06:29:46;;;;;;;14.43;10.20;;;;;;;18.82;80.43;100322.19;5036444;28;20029;-73
2021/06/09 06:32:14;;;;;;;16.20;11.18;;;;;;;18.82;81.09;100319.59;5033533;28;20041;-74
2021/06/09 06:34:46;;;;;;;18.77;11.20;;;;;;;18.87;82.64;100308.22;5024829;28;20039;-72
2021/06/09 06:37:13;;;;;;;11.75;9.98;;;;;;;19.13;80.52;100322.22;5033879;28;20029;-72
2021/06/09 06:39:41;;;;;;;12.75;10.45;;;;;;;19.17;80.38;100324.81;5033557;28;20124;-73
2021/06/09 06:42:07;;;;;;;12.70;9.80;;;;;;;18.88;77.51;100254.19;5033191;28;20047;-72
2021/06/09 06:44:34;;;;;;;13.60;8.27;;;;;;;19.20;76.73;100309.16;5032860;28;20022;-72
2021/06/09 06:47:04;;;;;;;11.73;9.23;;;;;;;19.40;76.17;100319.56;5033458;28;20492;-71
2021/06/09 06:49:30;;;;;;;14.85;8.48;;;;;;;19.34;75.80;100292.53;5033179;28;20104;-72
2021/06/09 06:51:56;;;;;;;12.25;8.43;;;;;;;19.46;77.36;100318.69;5033376;28;20033;-70
2021/06/09 06:54:24;;;;;;;10.02;7.93;;;;;;;19.63;76.63;100326.50;5033529;28;20036;-73
2021/06/09 06:56:52;;;;;;;9.82;8.13;;;;;;;19.70;75.63;100332.59;4981982;28;20036;-72
2021/06/09 06:59:21;;;;;;;11.20;7.05;;;;;;;19.60;74.51;100313.44;5032839;28;20033;-72
2021/06/09 07:01:47;;;;;;;8.55;7.00;;;;;;;19.98;75.84;100329.91;5015348;28;20116;-73
2021/06/09 07:04:15;;;;;;;9.60;6.70;;;;;;;19.88;74.18;100335.19;5015297;28;20105;-75
2021/06/09 07:06:43;;;;;;;9.15;6.90;;;;;;;19.90;73.83;100327.34;5032031;28;20418;-71
2021/06/09 07:09:09;;;;;;;10.23;6.65;;;;;;;19.59;73.19;100271.50;5032885;28;20630;-71
2021/06/09 07:11:37;;;;;;;8.07;6.82;;;;;;;20.00;72.67;100315.94;5032852;28;20040;-72
2021/06/09 07:14:05;;;;;;;8.77;6.65;;;;;;;20.12;74.72;100309.75;5033219;28;20040;-72
2021/06/09 07:16:33;;;;;;;10.23;7.30;;;;;;;20.35;74.84;100327.97;5032831;28;20107;-75
2021/06/09 07:19:00;;;;;;;7.53;6.30;;;;;;;20.42;69.48;100325.31;5032183;28;20061;-71
2021/06/09 07:21:26;;;;;;;6.45;5.20;;;;;;;20.61;67.91;100315.59;5031156;28;20029;-73
2021/06/09 07:23:53;;;;;;;8.00;5.88;;;;;;;20.81;68.06;100323.34;5030973;28;20033;-72
2021/06/09 07:26:19;;;;;;;6.75;5.80;;;;;;;20.94;67.90;100321.50;5029265;28;20049;-73
2021/06/09 07:28:48;;;;;;;12.25;6.03;;;;;;;21.05;71.58;100322.28;5035203;28;20029;-74
2021/06/09 07:31:16;;;;;;;8.43;6.95;;;;;;;21.08;69.62;100322.25;5009335;28;20057;-73
2021/06/09 07:33:43;;;;;;;12.63;5.80;;;;;;;21.14;68.12;100321.31;5016606;28;20040;-74
2021/06/09 07:36:11;;;;;;;14.20;6.88;;;;;;;21.31;67.12;100314.16;5013811;28;20028;-73
2021/06/09 07:38:45;;;;;;;6.75;5.45;;;;;;;21.31;66.78;100323.81;5028385;28;20043;-75
2021/06/09 07:41:12;;;;;;;6.93;5.07;;;;;;;21.45;65.45;100300.88;5030016;28;20021;-73
2021/06/09 07:43:41;;;;;;;9.10;5.57;;;;;;;21.79;65.43;100316.31;5030720;28;20116;-74
2021/06/09 07:46:16;;;;;;;11.43;6.22;;;;;;;21.86;63.69;100300.44;5031304;28;20025;-75
2021/06/09 07:48:46;;;;;;;8.13;4.72;;;;;;;22.11;63.89;100315.03;5031106;28;20030;-75
2021/06/09 07:51:13;;;;;;;17.55;4.80;;;;;;;22.25;63.29;100313.97;5031348;28;20115;-72
2021/06/09 07:53:40;;;;;;;8.13;4.70;;;;;;;22.21;61.82;100318.41;5030340;28;20026;-74
2021/06/09 07:56:11;;;;;;;9.98;4.70;;;;;;;22.35;62.88;100306.81;5031404;28;20495;-73
2021/06/09 07:58:37;;;;;;;12.23;5.07;;;;;;;22.52;61.94;100312.75;5030942;28;20124;-74
2021/06/09 08:01:03;;;;;;;11.05;5.78;;;;;;;22.53;65.75;100298.69;5031244;28;20033;-72
2021/06/09 08:03:31;;;;;;;12.13;5.28;;;;;;;22.69;65.50;100308.97;5031606;28;20412;-72
2021/06/09 08:06:01;;;;;;;7.90;5.13;;;;;;;22.77;65.27;100305.31;5031027;28;20108;-72
2021/06/09 08:08:27;;;;;;;;;;;;;;;22.77;64.71;100301.84;5032030;28;20484;-73
2021/06/09 08:10:52;;;;;;;9.48;4.47;;;;;;;22.77;59.79;100292.16;5031478;28;19956;-73
2021/06/09 08:13:18;;;;;;;7.75;3.72;;;;;;;22.98;59.39;100297.97;5031485;28;20108;-75
2021/06/09 08:15:45;;;;;;;10.80;4.78;;;;;;;23.20;62.96;100309.03;5030504;28;20029;-80
2021/06/09 08:18:12;;;;;;;8.77;3.85;;;;;;;23.03;62.54;100255.75;5031574;28;20385;-77
2021/06/09 08:21:06;;;;;;;12.10;3.88;;;;;;;23.36;59.38;100309.59;5009652;28;20049;-76
2021/06/09 08:23:32;;;;;;;8.70;3.67;;;;;;;23.05;60.44;100260.13;5005622;28;20121;-76
2021/06/09 08:25:58;;;;;;;4.10;2.88;;;;;;;23.38;54.84;100302.56;5009609;28;20799;-77
2021/06/09 08:28:24;;;;;;;6.90;3.45;;;;;;;23.57;53.22;100312.75;5009344;28;20034;-77
2021/06/09 08:30:50;;;;;;;5.43;3.10;;;;;;;23.40;52.73;100263.00;4992871;28;20026;-75
2021/06/09 08:33:15;;;;;;;4.03;3.10;;;;;;;23.71;54.86;100301.94;5008336;28;20060;-77
2021/06/09 08:35:41;;;;;;;10.45;3.42;;;;;;;23.78;57.47;100297.41;5009505;28;20455;-79
2021/06/09 08:38:07;;;;;;;8.82;3.85;;;;;;;23.80;59.21;100301.75;5009208;28;20050;-78
2021/06/09 08:40:33;;;;;;;8.98;3.38;;;;;;;23.81;55.81;100310.53;4976414;28;20030;-75
2021/06/09 08:42:59;;;;;;;9.50;4.00;;;;;;;23.92;55.62;100320.88;5009198;28;20034;-76
2021/06/09 08:45:24;;;;;;;6.57;3.38;;;;;;;24.01;54.42;100315.41;4996156;28;20034;-77
2021/06/09 08:47:51;;;;;;;8.95;3.55;;;;;;;23.97;55.15;100292.66;5009491;28;20060;-77
2021/06/09 08:50:18;;;;;;;14.20;4.15;;;;;;;23.81;53.37;100256.00;5009145;28;20030;-77
2021/06/09 08:52:50;;;;;;;5.22;3.50;;;;;;;24.25;58.20;100298.19;5008120;28;20457;-76
2021/06/09 08:55:16;;;;;;;8.13;3.70;;;;;;;23.93;55.31;100264.63;5007848;28;20088;-78
2021/06/09 08:57:42;;;;;;;8.15;3.33;;;;;;;24.15;54.31;100309.81;4996430;28;20489;-78
2021/06/09 09:00:10;;;;;;;9.43;3.95;;;;;;;24.34;57.02;100308.53;5014645;28;20031;-79
2021/06/09 09:02:36;;;;;;;12.70;6.05;;;;;;;24.48;52.75;100307.34;5029947;28;20523;-74
2021/06/09 09:05:06;;;;;;;5.93;3.35;;;;;;;24.65;53.99;100302.56;5030184;28;20057;-79
2021/06/09 09:07:31;;;;;;;7.85;3.95;;;;;;;24.58;52.98;100293.03;5027197;28;20050;-78
2021/06/09 09:10:00;;;;;;;5.38;3.30;;;;;;;24.38;52.44;100282.94;5016927;28;20055;-78
2021/06/09 09:12:27;;;;;;;5.95;3.25;;;;;;;24.71;52.78;100286.56;5013926;28;20057;-80
2021/06/09 09:14:52;;;;;;;10.90;3.88;;;;;;;24.98;52.01;100292.06;5011073;28;20037;-81
2021/06/09 09:17:18;;;;;;;13.70;3.95;;;;;;;25.01;50.67;100267.34;5011129;28;20022;-75
2021/06/09 09:19:46;;;;;;;10.70;3.30;;;;;;;25.35;48.87;100299.00;5013616;28;20398;-81
2021/06/09 09:22:30;;;;;;;11.30;3.50;;;;;;;25.49;50.09;100293.38;5011757;28;20064;-73
2021/06/09 09:24:56;;;;;;;4.10;3.10;;;;;;;25.60;51.47;100282.50;4993779;28;20018;-73
2021/06/09 09:27:29;;;;;;;4.38;3.17;;;;;;;25.82;49.30;100298.63;5010712;28;20040;-73
2021/06/09 09:30:10;;;;;;;7.47;3.13;;;;;;;25.70;52.45;100308.69;5011007;28;20038;-72
2021/06/09 09:32:38;;;;;;;3.90;3.40;;;;;;;25.87;52.39;100303.78;5012542;28;20113;-74
2021/06/09 09:35:13;;;;;;;5.63;3.05;;;;;;;25.90;48.73;100300.19;5013832;28;20455;-73
2021/06/09 09:37:38;;;;;;;4.93;3.35;;;;;;;26.06;46.68;100292.69;5018783;28;20025;-72
2021/06/09 09:40:15;;;;;;;6.28;4.00;;;;;;;25.99;49.83;100282.28;5030154;28;20112;-74
2021/06/09 09:42:47;;;;;;;9.43;3.63;;;;;;;26.34;48.77;100278.59;5027410;28;20033;-75
2021/06/09 09:45:21;;;;;;;5.53;3.08;;;;;;;26.59;48.25;100284.84;5029153;28;20052;-72
2021/06/09 09:48:15;;;;;;;7.57;3.20;;;;;;;26.68;48.26;100272.19;5009898;28;20054;-74
2021/06/09 09:50:52;;;;;;;6.22;3.05;;;;;;;26.80;48.41;100271.81;5013490;28;20022;-74
2021/06/09 09:53:27;;;;;;;4.40;2.70;;;;;;;26.90;44.55;100278.53;4994950;28;20017;-76
2021/06/09 09:56:08;;;;;;;5.15;3.20;;;;;;;27.04;46.45;100280.72;5013353;28;20026;-75
2021/06/09 09:58:51;;;;;;;6.15;2.75;;;;;;;26.72;43.56;100245.56;5012162;28;20026;-75
2021/06/09 10:01:22;;;;;;;7.20;3.08;;;;;;;27.11;43.99;100260.19;5028109;28;20048;-74
2021/06/09 10:03:53;;;;;;;4.40;2.80;;;;;;;27.01;42.97;100264.94;5025462;28;20059;-74
2021/06/09 10:06:21;;;;;;;6.28;3.05;;;;;;;27.17;43.72;100267.91;5029966;28;20049;-79
2021/06/09 10:08:48;;;;;;;5.80;3.17;;;;;;;27.35;44.94;100253.13;5030506;28;20107;-79
2021/06/09 10:11:15;;;;;;;7.07;3.08;;;;;;;27.38;47.02;100258.31;5030762;28;20033;-79
2021/06/09 10:13:40;;;;;;;4.78;3.10;;;;;;;27.59;45.99;100262.00;5012092;28;20413;-80
2021/06/09 10:16:26;;;;;;;7.15;3.42;;;;;;;27.20;46.54;100253.69;5018868;28;20041;-75
2021/06/09 10:19:09;;;;;;;4.88;2.80;;;;;;;27.03;40.87;100193.34;5028063;28;20069;-79
2021/06/09 10:22:04;;;;;;;4.40;2.70;;;;;;;27.35;41.46;100241.66;5019849;28;20080;-75
2021/06/09 10:24:40;;;;;;;5.47;2.50;;;;;;;27.11;42.26;100178.03;5008305;28;20061;-76
2021/06/09 10:27:07;;;;;;;6.55;2.97;;;;;;;27.50;42.51;100237.63;5031918;28;20033;-75
2021/06/09 10:29:35;;;;;;;7.40;3.00;;;;;;;27.35;42.28;100199.25;5031060;28;20436;-77
2021/06/09 10:32:06;;;;;;;6.03;2.90;;;;;;;27.85;42.24;100235.41;5031034;28;20029;-76
2021/06/09 10:34:34;;;;;;;4.15;2.70;;;;;;;28.08;41.78;100235.41;5031168;28;20136;-76
2021/06/09 10:37:03;;;;;;;9.55;2.83;;;;;;;27.90;44.96;100223.69;5014412;28;20108;-75
2021/06/09 10:39:31;;;;;;;6.95;2.90;;;;;;;27.54;42.95;100221.53;5028157;28;20042;-76
2021/06/09 10:42:00;;;;;;;9.23;2.87;;;;;;;27.85;43.21;100222.13;5002811;28;20034;-73
2021/06/09 10:44:30;;;;;;;6.70;2.80;;;;;;;27.93;42.46;100177.59;5019205;28;20356;-79
2021/06/09 11:10:31;;;;;;;4.70;2.70;;;;;;;29.27;40.97;100199.44;5033194;28;20048;-76
2021/06/09 11:12:57;;;;;;;4.83;2.60;;;;;;;29.32;36.21;100178.88;5033301;28;20501;-74
2021/06/09 11:15:31;;;;;;;5.07;2.97;;;;;;;29.24;37.14;100188.97;5033175;28;20271;-76
2021/06/09 11:18:00;;;;;;;4.93;2.58;;;;;;;29.63;38.29;100177.44;5032338;28;20033;-75
2021/06/09 11:20:31;;;;;;;4.43;2.40;;;;;;;29.85;39.97;100177.28;5033424;28;20522;-80
2021/06/09 11:23:01;;;;;;;3.42;2.28;;;;;;;29.95;36.30;100175.91;5033164;28;20037;-76
2021/06/09 11:25:31;;;;;;;7.85;2.50;;;;;;;30.05;35.21;100168.34;5032556;28;20104;-75
2021/06/09 11:28:03;;;;;;;5.25;2.70;;;;;;;30.20;35.54;100172.06;5032429;28;20030;-75
2021/06/09 11:30:29;;;;;;;7.13;2.80;;;;;;;30.54;35.06;100166.84;4991459;28;20043;-75
2021/06/09 11:32:58;;;;;;;7.07;2.67;;;;;;;30.36;35.39;100163.28;4991233;28;20078;-77
2021/06/09 11:35:46;;;;;;;3.03;2.33;;;;;;;30.47;35.79;100159.16;4988523;28;20055;-76
2021/06/09 11:38:13;;;;;;;4.43;2.50;;;;;;;30.32;34.46;100135.97;4990980;28;20046;-76
2021/06/09 11:40:52;;;;;;;6.57;2.97;;;;;;;30.57;35.24;100140.91;4991433;28;20114;-73
2021/06/09 11:43:45;;;;;;;9.52;3.15;;;;;;;30.44;35.54;100137.97;4971982;28;20042;-76
2021/06/09 11:46:23;;;;;;;4.72;2.70;;;;;;;30.31;37.75;100126.25;4952763;29;20487;-76
2021/06/09 11:48:55;;;;;;;4.63;2.60;;;;;;;30.53;35.38;100138.50;4951832;28;20130;-76
2021/06/09 11:51:58;;;;;;;6.95;2.75;;;;;;;30.62;37.98;100135.38;4952342;28;20430;-79
2021/06/09 11:54:28;;;;;;;17.40;2.50;;;;;;;30.24;38.74;100132.81;4952266;28;20046;-73
2021/06/09 11:56:59;;;;;;;5.95;2.42;;;;;;;28.93;40.93;100124.75;4968150;28;20134;-75
2021/06/09 11:59:29;;;;;;;6.45;2.50;;;;;;;28.55;46.21;100133.47;4952801;29;20042;-73
2021/06/09 12:01:59;;;;;;;5.60;2.40;;;;;;;28.37;43.95;100127.16;4952358;29;20042;-74
2021/06/09 12:04:30;;;;;;;7.47;1.90;;;;;;;28.43;38.05;100110.09;4949733;29;20035;-76
2021/06/09 12:06:59;;;;;;;2.03;1.50;;;;;;;28.73;37.64;100113.22;4955485;28;20086;-75
2021/06/09 12:09:31;;;;;;;4.70;1.70;;;;;;;29.31;32.52;100123.97;4990731;28;20543;-73
2021/06/09 12:12:01;;;;;;;2.92;1.60;;;;;;;29.78;32.65;100118.16;4989110;28;20147;-81
2021/06/09 12:14:36;;;;;;;2.67;1.80;;;;;;;29.89;35.13;100119.44;4996436;28;20158;-76
2021/06/09 12:17:26;;;;;;;2.25;1.80;;;;;;;29.90;39.76;100127.38;4972053;28;20502;-75
2021/06/09 12:20:15;;;;;;;4.55;2.22;;;;;;;29.36;38.65;100098.03;4933844;29;20124;-75
2021/06/09 12:22:41;;;;;;;;;;;;;;;29.27;41.33;100127.66;4948443;29;20130;-73
2021/06/09 12:25:11;;;;;;;2.85;2.13;;;;;;;28.73;41.96;100133.63;4933906;29;19918;-72
2021/06/09 12:27:41;;;;;;;3.25;2.03;;;;;;;28.49;38.05;100123.13;4951424;28;20043;-73
2021/06/09 12:30:12;;;;;;;3.13;2.22;;;;;;;28.53;39.99;100126.50;4951214;29;20035;-74
2021/06/09 12:32:41;;;;;;;4.22;2.75;;;;;;;27.98;41.40;100121.72;4934883;28;20068;-73
2021/06/09 12:35:14;;;;;;;3.10;2.23;;;;;;;28.17;41.12;100127.16;4967826;28;20055;-76
2021/06/09 12:37:49;;;;;;;3.30;2.30;;;;;;;28.10;39.90;100118.56;4970464;28;20053;-75
2021/06/09 12:40:30;;;;;;;4.55;2.40;;;;;;;27.82;40.14;100119.66;4951407;28;20027;-74
2021/06/09 12:43:03;;;;;;;4.15;2.45;;;;;;;28.08;40.88;100115.13;4969903;28;20047;-72
2021/06/09 12:45:33;;;;;;;4.22;2.70;;;;;;;28.57;42.75;100121.00;4970006;28;20045;-73
2021/06/09 12:48:07;;;;;;;4.35;2.45;;;;;;;28.83;40.03;100119.00;4970420;28;20039;-74
2021/06/09 12:50:40;;;;;;;6.80;2.85;;;;;;;28.92;39.55;100116.88;4937820;28;20047;-75
2021/06/09 12:53:15;;;;;;;8.48;2.90;;;;;;;29.23;39.44;100147.38;4970334;28;20078;-75
2021/06/09 12:55:47;;;;;;;5.97;2.20;;;;;;;28.79;37.81;100074.91;4986802;28;20042;-72
2021/06/09 12:58:19;;;;;;;6.70;2.28;;;;;;;29.25;38.38;100125.09;5035208;28;20115;-75
2021/06/09 13:00:49;;;;;;;8.98;2.75;;;;;;;29.59;39.73;100130.66;5038442;28;20030;-74
2021/06/09 13:03:35;;;;;;;7.25;2.08;;;;;;;29.77;35.16;100116.47;5029532;28;20176;-75
2021/06/09 13:06:13;;;;;;;2.78;1.85;;;;;;;29.78;35.65;100109.31;5037782;28;20056;-72
2021/06/09 13:12:02;;;;;;;4.50;2.10;;;;;;;30.44;33.44;100118.47;5014473;28;20519;-74
2021/06/09 13:14:38;;;;;;;6.15;2.17;;;;;;;30.48;33.52;100074.75;5001996;28;20040;-70
2021/06/09 13:17:08;;;;;;;13.70;2.60;;;;;;;30.54;31.70;100105.59;5015435;28;20400;-75
2021/06/09 13:19:35;;;;;;;16.58;2.83;;;;;;;30.75;29.32;100111.59;5026352;28;20017;-73
2021/06/09 13:22:05;;;;;;;3.55;1.60;;;;;;;30.96;28.27;100115.75;5030564;28;20172;-72
2021/06/09 13:24:37;;;;;;;4.65;1.85;;;;;;;31.09;28.69;100104.44;5017457;28;20021;-76
2021/06/09 13:27:06;;;;;;;3.03;1.55;;;;;;;30.98;27.93;100052.56;5031083;28;20037;-71
2021/06/09 13:29:39;;;;;;;4.28;2.00;;;;;;;31.33;27.04;100094.25;5030469;28;20026;-74
2021/06/09 13:32:20;;;;;;;6.40;3.00;;;;;;;31.50;26.61;100090.63;5030944;28;20033;-73
2021/06/09 13:34:49;;;;;;;5.38;2.10;;;;;;;31.22;27.56;100048.66;5017260;28;20084;-71
2021/06/09 13:37:18;;;;;;;7.13;2.35;;;;;;;31.51;27.60;100081.66;5016450;28;20041;-76
2021/06/09 13:39:50;;;;;;;15.50;3.13;;;;;;;31.54;27.86;100064.63;5030768;28;20104;-76
2021/06/09 13:42:18;;;;;;;4.85;1.75;;;;;;;31.50;29.19;100074.59;5034758;28;20037;-72
2021/06/09 13:44:46;;;;;;;4.13;1.80;;;;;;;31.59;28.78;100081.22;5034561;28;20034;-74
2021/06/09 13:47:22;;;;;;;4.60;1.98;;;;;;;31.53;31.77;100084.25;5033460;28;20025;-74
2021/06/09 13:49:58;;;;;;;5.80;2.10;;;;;;;31.62;29.11;100075.72;5032240;28;20033;-71
2021/06/09 13:52:33;;;;;;;6.30;2.60;;;;;;;31.70;28.81;100085.97;5020457;28;20018;-71
2021/06/09 13:55:00;;;;;;;7.60;2.28;;;;;;;31.73;28.89;100070.66;5034320;28;20032;-74
2021/06/09 13:57:31;;;;;;;4.22;2.22;;;;;;;31.86;29.75;100080.63;5034399;28;20032;-78
2021/06/09 13:59:59;;;;;;;3.13;1.92;;;;;;;31.85;29.44;100069.09;5030937;28;20413;-73
2021/06/09 14:02:28;;;;;;;3.17;1.92;;;;;;;31.62;29.05;100054.38;5021166;28;20028;-74
2021/06/09 14:05:05;;;;;;;3.22;2.42;;;;;;;31.61;29.44;100061.50;5019897;28;20409;-73
2021/06/09 14:07:37;;;;;;;2.97;1.60;;;;;;;30.67;30.10;100064.03;5033851;28;20021;-73
2021/06/09 14:10:04;;;;;;;2.95;2.00;;;;;;;30.18;32.17;100064.75;5033742;28;20049;-75
2021/06/09 14:12:39;;;;;;;4.82;2.42;;;;;;;30.59;30.83;100061.75;5033619;28;20045;-73
2021/06/09 14:15:13;;;;;;;7.65;2.40;;;;;;;30.49;30.63;100065.88;5033274;28;20099;-74
2021/06/09 14:17:39;;;;;;;4.65;2.17;;;;;;;30.47;33.04;100062.41;5034060;28;20091;-73
2021/06/09 14:20:12;;;;;;;3.50;1.98;;;;;;;30.97;31.54;100074.81;5033064;28;20034;-74
2021/06/09 14:22:43;;;;;;;5.55;2.20;;;;;;;31.21;29.83;100073.59;5027893;28;20030;-75
2021/06/09 14:25:13;;;;;;;4.57;2.03;;;;;;;31.26;29.22;100068.88;5015872;28;20400;-72
2021/06/09 14:28:00;;;;;;;2.60;2.00;;;;;;;31.34;28.74;100069.31;5031455;28;20025;-74
2021/06/09 14:30:49;;;;;;;2.67;1.92;;;;;;;31.43;29.17;100054.59;5033175;28;20025;-73
2021/06/09 14:36:17;;;;;;;2.90;2.22;;;;;;;30.99;28.70;100053.41;5033048;28;20083;-74
2021/06/09 14:38:52;;;;;;;;;;;;;;;30.72;29.54;100056.66;5033860;28;20040;-74
2021/06/09 14:41:40;;;;;;;3.65;2.10;;;;;;;30.69;28.96;100054.13;5030499;28;19913;-74
2021/06/09 14:44:27;;;;;;;3.58;2.20;;;;;;;30.09;30.03;100034.16;4991055;28;20031;-74
2021/06/09 14:47:10;;;;;;;3.10;1.90;;;;;;;30.56;30.40;100048.63;4991447;28;20035;-73
2021/06/09 14:49:42;;;;;;;3.45;2.17;;;;;;;30.71;29.21;100006.13;4991419;28;20030;-74
2021/06/09 14:52:26;;;;;;;4.55;2.10;;;;;;;31.27;30.61;100057.25;4989384;28;20482;-76
2021/06/09 14:54:54;;;;;;;6.43;1.90;;;;;;;31.17;28.43;99997.38;4991333;28;20125;-74
2021/06/09 14:57:22;;;;;;;2.38;1.90;;;;;;;31.49;27.66;100045.34;4991329;28;20478;-74
2021/06/09 14:59:57;;;;;;;3.67;2.08;;;;;;;31.48;28.38;100044.50;4991054;28;20022;-75
2021/06/09 15:02:25;;;;;;;2.80;2.13;;;;;;;31.61;27.93;100050.00;4990504;28;20042;-75
2021/06/09 15:04:52;;;;;;;6.63;2.60;;;;;;;30.47;32.75;99998.47;4991193;28;20049;-74
2021/06/09 15:07:18;;;;;;;2.65;2.20;;;;;;;30.68;32.91;100047.13;4990882;28;20026;-74
2021/06/09 15:09:43;;;;;;;3.40;2.30;;;;;;;30.95;31.84;100047.38;4990882;28;20510;-74
2021/06/09 15:12:10;;;;;;;3.05;2.47;;;;;;;30.56;32.35;100047.78;4990589;28;20032;-75
2021/06/09 15:14:35;;;;;;;4.25;2.45;;;;;;;30.69;32.26;100045.28;4990769;28;20101;-72
2021/06/09 15:17:02;;;;;;;4.38;2.63;;;;;;;30.88;32.22;100050.47;4992118;28;20026;-74
2021/06/09 15:19:27;;;;;;;5.57;2.25;;;;;;;30.46;33.45;100047.38;4990409;28;20479;-75
2021/06/09 15:21:53;;;;;;;5.75;2.60;;;;;;;30.55;33.24;100062.03;4971633;28;20037;-73
2021/06/09 15:24:18;;;;;;;5.85;2.50;;;;;;;30.09;32.85;100039.47;5032289;28;20044;-72
2021/06/09 15:26:44;;;;;;;4.40;2.42;;;;;;;29.88;33.84;100052.03;5032498;28;20445;-71
2021/06/09 15:29:10;;;;;;;3.75;2.22;;;;;;;30.14;32.89;100053.41;5028738;28;20037;-74
2021/06/09 15:31:41;;;;;;;2.58;2.15;;;;;;;30.12;32.44;100039.34;5030496;28;20025;-72
2021/06/09 15:34:08;;;;;;;7.63;2.65;;;;;;;29.87;35.10;100063.66;5030329;28;20053;-75
2021/06/09 15:36:36;;;;;;;4.50;2.38;;;;;;;29.12;35.48;100038.88;5013398;28;20030;-75
2021/06/09 15:39:14;;;;;;;15.15;2.75;;;;;;;28.18;37.53;100063.38;5012065;28;20072;-77
2021/06/09 15:41:42;;;;;;;27.55;4.68;;;;;;;28.29;38.33;100020.44;5031701;28;20492;-74
2021/06/09 15:44:08;;;;;;;20.50;3.13;;;;;;;28.66;39.48;100079.91;5032073;28;20025;-75
2021/06/09 15:46:36;;;;;;;11.65;2.70;;;;;;;28.48;38.14;100044.38;5032302;28;20081;-75
2021/06/09 15:49:03;;;;;;;5.43;2.40;;;;;;;28.76;36.48;100098.09;5032428;28;20028;-74
2021/06/09 15:51:29;;;;;;;6.60;2.47;;;;;;;28.79;36.57;100077.56;5032124;28;20595;-74
2021/06/09 15:53:54;;;;;;;12.52;2.22;;;;;;;28.80;36.28;100079.28;5016053;28;20116;-74
2021/06/09 15:56:20;;;;;;;10.95;2.60;;;;;;;28.78;36.40;100080.31;5015388;28;20404;-74
2021/06/09 15:58:46;;;;;;;12.63;3.00;;;;;;;28.47;37.50;100037.34;5031487;28;20099;-74
2021/06/09 16:01:11;;;;;;;14.32;3.45;;;;;;;28.64;37.41;100091.53;5031903;28;20457;-74
2021/06/09 16:03:37;;;;;;;20.98;2.80;;;;;;;28.58;37.52;100093.50;5031012;28;20025;-74
2021/06/09 16:06:03;;;;;;;15.20;3.20;;;;;;;28.52;38.34;100092.91;5013311;28;20494;-75
2021/06/09 16:08:29;;;;;;;19.48;2.78;;;;;;;28.54;37.70;100086.59;4989234;28;20034;-74
2021/06/09 16:10:57;;;;;;;25.92;4.28;;;;;;;28.66;37.83;100092.28;4989351;28;20203;-75
2021/06/09 16:13:23;;;;;;;22.00;3.67;;;;;;;28.55;38.09;100080.34;4999179;28;20030;-75
2021/06/09 16:15:48;;;;;;;19.45;3.72;;;;;;;28.64;38.00;100084.41;4990578;28;20035;-75
2021/06/09 16:18:14;;;;;;;9.93;2.80;;;;;;;28.49;38.61;100096.56;4994554;28;20463;-74
2021/06/09 16:20:40;;;;;;;5.00;2.20;;;;;;;28.05;38.29;100049.78;4972078;28;20094;-75
2021/06/09 16:23:06;;;;;;;11.07;2.60;;;;;;;28.29;39.69;100097.44;4948648;28;20138;-75
2021/06/09 16:25:32;;;;;;;11.70;3.90;;;;;;;28.12;40.23;100089.31;4948831;28;20130;-75
2021/06/09 16:27:58;;;;;;;7.38;2.10;;;;;;;28.09;39.14;100100.94;4948834;28;20054;-75
2021/06/09 16:30:24;;;;;;;7.80;2.13;;;;;;;27.80;38.93;100059.66;4950627;28;20039;-74
2021/06/09 16:32:51;;;;;;;7.40;2.30;;;;;;;28.09;39.41;100117.72;4932768;28;20058;-74
2021/06/09 16:35:39;;;;;;;6.47;2.55;;;;;;;27.81;39.59;100090.56;4946699;28;21959;-75
2021/06/09 16:38:05;;;;;;;12.27;3.10;;;;;;;27.86;40.47;100107.16;4931658;29;20047;-74
2021/06/09 16:40:32;;;;;;;8.00;2.75;;;;;;;27.79;40.39;100105.66;4928124;29;20039;-74
2021/06/09 16:42:59;;;;;;;18.55;4.75;;;;;;;27.74;40.50;100112.03;4930973;29;20055;-75
2021/06/09 16:45:26;;;;;;;9.82;3.20;;;;;;;27.55;40.09;100106.59;4931451;29;20499;-75
2021/06/09 16:47:53;;;;;;;12.07;3.53;;;;;;;27.66;41.09;100110.59;4931167;29;20035;-75
2021/06/09 16:50:20;;;;;;;8.65;2.75;;;;;;;27.18;41.38;100047.03;4931107;29;20556;-74
2021/06/09 16:52:48;;;;;;;11.85;3.03;;;;;;;27.38;41.70;100077.22;4930770;29;20050;-76
2021/06/09 17:00:46;;;;;;;26.27;5.45;;;;;;;27.72;42.69;100124.47;4969694;28;20054;-75
2021/06/09 17:03:16;;;;;;;12.48;3.28;;;;;;;27.49;41.41;100098.91;4968907;28;20498;-74
2021/06/09 17:05:43;;;;;;;6.88;3.80;;;;;;;27.37;41.98;100115.25;4952696;28;20030;-72
2021/06/09 17:08:09;;;;;;;5.82;3.15;;;;;;;27.11;42.32;100086.16;4953854;28;20054;-74
2021/06/09 17:10:35;;;;;;;15.20;5.82;;;;;;;27.38;41.92;100120.47;4992246;28;20022;-74
2021/06/09 17:13:01;;;;;;;17.90;5.15;;;;;;;27.34;42.28;100110.03;5030999;28;20022;-74
2021/06/09 17:15:28;;;;;;;12.07;3.17;;;;;;;27.25;40.88;100068.84;5029937;28;20025;-75
2021/06/09 17:17:54;;;;;;;15.75;4.28;;;;;;;27.09;42.63;100122.47;5047068;28;20464;-74
2021/06/09 17:20:19;;;;;;;24.88;3.80;;;;;;;27.28;41.42;100130.56;5050552;28;20033;-74
2021/06/09 17:22:45;;;;;;;14.02;3.60;;;;;;;26.25;44.87;100078.66;5043377;28;20024;-74
2021/06/09 17:25:11;;;;;;;10.82;3.08;;;;;;;26.00;46.94;100135.84;5026476;28;20092;-75
2021/06/09 17:27:37;;;;;;;18.45;3.92;;;;;;;25.66;48.55;100134.28;5030323;28;20018;-75
2021/06/09 17:30:04;;;;;;;19.52;3.85;;;;;;;25.90;47.97;100139.72;5018214;28;20105;-74
2021/06/09 17:32:29;;;;;;;6.00;2.70;;;;;;;25.97;47.47;100137.72;5029206;28;20032;-74
2021/06/09 17:34:56;;;;;;;7.72;3.58;;;;;;;25.94;48.11;100137.84;5026671;28;20045;-74
2021/06/09 17:37:22;;;;;;;14.35;3.50;;;;;;;26.04;47.93;100141.06;5030375;28;20037;-75
2021/06/09 17:39:48;;;;;;;11.50;2.80;;;;;;;26.16;46.98;100128.31;5030629;28;20117;-75